createdAt,value
2022-10-06T00:00:45.317Z,19.6
2022-10-06T00:03:02.763Z,19.6
2022-10-06T00:05:17.676Z,19.6
2022-10-06T00:07:34.422Z,20.2
2022-10-06T00:09:51.204Z,19.8
2022-10-06T00:12:08.218Z,19.6
2022-10-06T00:14:23.570Z,19.6
2022-10-06T00:16:40.434Z,19.9
2022-10-06T00:18:57.328Z,19.6
2022-10-06T00:21:14.324Z,19.5
2022-10-06T00:23:31.257Z,19.5
2022-10-06T00:25:48.267Z,19.6
2022-10-06T00:28:05.030Z,19.4
2022-10-06T00:30:21.902Z,19.4
2022-10-06T00:32:38.782Z,19.3
2022-10-06T00:34:55.641Z,19.6
2022-10-06T00:37:12.580Z,19.5
2022-10-06T00:39:29.424Z,19.3
2022-10-06T00:41:46.260Z,19.6
2022-10-06T00:44:03.302Z,19.5
2022-10-06T00:46:20.190Z,19.7
2022-10-06T00:48:36.965Z,19.7
2022-10-06T00:50:54.105Z,19.6
2022-10-06T00:53:09.338Z,19.4
2022-10-06T00:55:26.177Z,19.9
2022-10-06T00:57:43.888Z,19.4
2022-10-06T01:00:00.269Z,19.3
2022-10-06T01:02:17.506Z,19.4
2022-10-06T01:04:34.412Z,19.6
2022-10-06T01:06:51.576Z,19.5
2022-10-06T01:09:08.602Z,19.3
2022-10-06T01:11:25.358Z,19.4
2022-10-06T01:13:42.498Z,19.4
2022-10-06T01:15:58.037Z,19.4
2022-10-06T01:18:13.840Z,19.8
2022-10-06T01:20:30.596Z,19.8
2022-10-06T01:22:47.758Z,19.3
2022-10-06T01:25:04.808Z,19.4
2022-10-06T01:27:20.573Z,19.3
2022-10-06T01:29:37.377Z,19.8
2022-10-06T01:31:54.631Z,19.3
2022-10-06T01:34:11.522Z,19.1
2022-10-06T01:36:29.649Z,19.2
2022-10-06T01:38:45.689Z,19.2
2022-10-06T01:41:02.789Z,19.3
2022-10-06T01:43:20.278Z,19.1
2022-10-06T01:45:36.700Z,19.2
2022-10-06T01:47:53.861Z,19.3
2022-10-06T01:50:09.333Z,19.3
2022-10-06T01:52:26.428Z,19.7
2022-10-06T01:54:42.052Z,19.4
2022-10-06T01:56:58.908Z,19.6
2022-10-06T01:59:16.328Z,19.3
2022-10-06T02:01:33.167Z,19.3
2022-10-06T02:03:48.815Z,19.1
2022-10-06T02:06:05.868Z,19.8
2022-10-06T02:08:22.873Z,19.1
2022-10-06T02:10:39.932Z,19.3
2022-10-06T02:12:55.738Z,19.2
2022-10-06T02:15:12.501Z,19.6
2022-10-06T02:17:29.736Z,19.3
2022-10-06T02:19:46.777Z,19.1
2022-10-06T02:22:04.426Z,19.1
2022-10-06T02:24:19.329Z,19.3
2022-10-06T02:26:35.053Z,19.5
2022-10-06T02:28:52.235Z,19.7
2022-10-06T02:31:09.678Z,19.2
2022-10-06T02:33:26.553Z,19.1
2022-10-06T02:35:43.494Z,19.3
2022-10-06T02:38:00.554Z,19.3
2022-10-06T02:40:17.593Z,19.1
2022-10-06T02:42:34.432Z,19.1
2022-10-06T02:44:51.610Z,19.1
2022-10-06T02:47:08.556Z,19.2
2022-10-06T02:49:25.734Z,19.3
2022-10-06T02:51:41.189Z,19.1
2022-10-06T02:53:58.291Z,19.4
2022-10-06T02:56:15.346Z,19
2022-10-06T02:58:32.659Z,19.1
2022-10-06T03:00:48.161Z,19.1
2022-10-06T03:03:04.179Z,19.5
2022-10-06T03:05:21.020Z,19.6
2022-10-06T03:07:37.130Z,18.9
2022-10-06T03:09:54.069Z,19.6
2022-10-06T03:12:11.089Z,19
2022-10-06T03:14:28.393Z,19.1
2022-10-06T03:16:45.277Z,19.2
2022-10-06T03:19:02.493Z,19
2022-10-06T03:21:19.470Z,19.1
2022-10-06T03:23:36.731Z,19.1
2022-10-06T03:25:53.489Z,19
2022-10-06T03:28:10.557Z,19
2022-10-06T03:30:27.593Z,18.8
2022-10-06T03:32:44.684Z,18.9
2022-10-06T03:35:01.915Z,19.1
2022-10-06T03:37:18.766Z,19
2022-10-06T03:39:36.044Z,18.9
2022-10-06T03:41:52.947Z,18.9
2022-10-06T03:44:08.723Z,19.1
2022-10-06T03:46:24.563Z,19.4
2022-10-06T03:48:40.789Z,19.4
2022-10-06T03:50:57.672Z,19.4
2022-10-06T03:53:14.904Z,18.8
2022-10-06T03:55:30.707Z,19.2
2022-10-06T03:57:47.605Z,19.4
2022-10-06T04:02:22.025Z,18.9
2022-10-06T04:04:37.904Z,19.1
2022-10-06T04:06:54.907Z,19.3
2022-10-06T04:09:15.191Z,18.8
2022-10-06T04:11:29.135Z,19.1
2022-10-06T04:13:46.073Z,19
2022-10-06T04:16:03.244Z,19
2022-10-06T04:18:18.935Z,18.9
2022-10-06T04:20:36.073Z,19.3
2022-10-06T04:22:53.214Z,19.1
2022-10-06T04:25:10.333Z,18.9
2022-10-06T04:27:26.085Z,18.9
2022-10-06T04:29:43.220Z,19.4
2022-10-06T04:32:00.297Z,18.8
2022-10-06T04:34:16.219Z,18.9
2022-10-06T04:36:32.072Z,19.3
2022-10-06T04:38:49.654Z,19.3
2022-10-06T04:41:06.239Z,18.8
2022-10-06T04:43:23.320Z,18.8
2022-10-06T04:45:40.584Z,19.1
2022-10-06T04:48:10.515Z,19.1
2022-10-06T04:50:26.497Z,19.3
2022-10-06T04:52:43.438Z,19.3
2022-10-06T04:55:01.042Z,18.8
2022-10-06T04:57:17.635Z,18.9
2022-10-06T04:59:34.594Z,19.1
2022-10-06T05:01:51.657Z,18.8
2022-10-06T05:04:07.619Z,18.8
2022-10-06T05:06:24.310Z,19.4
2022-10-06T05:08:41.396Z,18.8
2022-10-06T05:10:57.102Z,18.8
2022-10-06T05:13:13.065Z,19.3
2022-10-06T05:15:30.192Z,19.3
2022-10-06T05:17:46.063Z,18.8
2022-10-06T05:20:03.053Z,19.2
2022-10-06T05:22:20.094Z,18.8
2022-10-06T05:24:37.234Z,18.9
2022-10-06T05:26:56.333Z,19.2
2022-10-06T05:29:11.153Z,19.1
2022-10-06T05:31:26.968Z,19.1
2022-10-06T05:33:43.803Z,19.3
2022-10-06T05:35:59.745Z,19
2022-10-06T05:38:15.728Z,19.4
2022-10-06T05:40:32.787Z,19.4
2022-10-06T05:42:49.825Z,19
2022-10-06T05:45:06.815Z,19.1
2022-10-06T05:47:23.853Z,19
2022-10-06T05:49:39.769Z,19.3
2022-10-06T05:51:56.386Z,19.6
2022-10-06T05:54:12.330Z,19.3
2022-10-06T05:56:28.282Z,19.5
2022-10-06T05:58:45.268Z,19.6
2022-10-06T06:01:02.377Z,19.3
2022-10-06T06:03:19.376Z,19.3
2022-10-06T06:05:35.057Z,19.4
2022-10-06T06:07:50.857Z,19.8
2022-10-06T06:10:07.910Z,19.8
2022-10-06T06:12:24.947Z,19.5
2022-10-06T06:14:42.022Z,19.5
2022-10-06T06:16:58.918Z,19.9
2022-10-06T06:19:14.468Z,19.8
2022-10-06T06:21:30.270Z,20.1
2022-10-06T06:23:46.295Z,20.3
2022-10-06T06:26:03.035Z,20.3
2022-10-06T06:28:20.078Z,19.8
2022-10-06T06:30:37.017Z,20.1
2022-10-06T06:32:53.954Z,20.3
2022-10-06T06:35:09.523Z,20.6
2022-10-06T06:37:26.215Z,20.7
2022-10-06T06:39:43.252Z,20.3
2022-10-06T06:42:00.254Z,20.4
2022-10-06T06:44:16.806Z,20.6
2022-10-06T06:48:50.504Z,20.8
2022-10-06T06:51:07.350Z,20.8
2022-10-06T06:53:24.193Z,20.8
2022-10-06T06:55:40.944Z,20.9
2022-10-06T07:00:14.352Z,21.2
2022-10-06T07:04:59.491Z,21.3
2022-10-06T07:07:16.036Z,21.3
2022-10-06T07:09:32.557Z,21.1
2022-10-06T07:11:49.076Z,21.3
2022-10-06T07:14:05.540Z,21.3
2022-10-06T07:16:22.189Z,21.4
2022-10-06T07:18:38.448Z,21.6
2022-10-06T07:20:54.956Z,21.6
2022-10-06T07:23:11.389Z,22
2022-10-06T07:25:27.744Z,21.8
2022-10-06T07:27:44.147Z,21.9
2022-10-06T07:30:00.485Z,22
2022-10-06T07:32:16.888Z,22.1
2022-10-06T07:34:31.866Z,22.2
2022-10-06T07:36:47.300Z,22.4
2022-10-06T07:39:01.730Z,22.6
2022-10-06T07:41:35.960Z,22.6
2022-10-06T07:43:50.930Z,22.6
2022-10-06T07:46:07.476Z,22.6
2022-10-06T07:48:23.969Z,22.4
2022-10-06T07:50:40.316Z,22.4
2022-10-06T07:52:56.517Z,22.8
2022-10-06T07:55:12.616Z,22.9
2022-10-06T07:57:28.770Z,22.8
2022-10-06T07:59:44.815Z,22.9
2022-10-06T08:01:59.982Z,23
2022-10-06T08:04:15.963Z,22.9
2022-10-06T08:06:32.119Z,22.8
2022-10-06T08:08:52.561Z,23.3
2022-10-06T08:11:04.678Z,23.2
2022-10-06T08:13:20.550Z,23.3
2022-10-06T08:15:36.515Z,23.1
2022-10-06T08:17:51.597Z,23.3
2022-10-06T08:20:31.842Z,23.4
2022-10-06T08:22:47.919Z,23.4
2022-10-06T08:25:18.467Z,23.2
2022-10-06T08:27:33.430Z,23.4
2022-10-06T08:29:48.375Z,23.5
2022-10-06T08:32:03.414Z,23.7
2022-10-06T08:34:18.452Z,23.7
2022-10-06T08:36:33.631Z,23.7
2022-10-06T08:38:59.116Z,23.7
2022-10-06T08:41:14.333Z,23.8
2022-10-06T08:43:30.449Z,23.8
2022-10-06T08:45:45.650Z,23.6
2022-10-06T08:48:01.680Z,23.9
2022-10-06T08:50:16.748Z,23.3
2022-10-06T08:52:32.984Z,23.9
2022-10-06T08:54:47.839Z,23.6
2022-10-06T08:57:03.780Z,24
2022-10-06T08:59:18.910Z,23.7
2022-10-06T09:01:34.017Z,24.1
2022-10-06T09:03:49.921Z,24.2
2022-10-06T09:06:05.085Z,23.9
2022-10-06T09:08:20.127Z,24.1
2022-10-06T09:10:35.257Z,24
2022-10-06T09:12:50.470Z,24.1
2022-10-06T09:15:05.746Z,24.2
2022-10-06T09:17:21.139Z,24.1
2022-10-06T09:19:51.357Z,24.2
2022-10-06T09:22:06.859Z,24
2022-10-06T09:24:22.368Z,24.2
2022-10-06T09:26:37.934Z,24.2
2022-10-06T09:28:53.215Z,24.3
2022-10-06T09:31:09.717Z,24.3
2022-10-06T09:33:24.952Z,23.6
2022-10-06T09:35:40.156Z,24.4
2022-10-06T09:37:55.736Z,24.3
2022-10-06T09:40:11.115Z,24.3
2022-10-06T09:42:27.104Z,24.1
2022-10-06T09:44:42.874Z,24.3
2022-10-06T09:46:58.158Z,24.1
2022-10-06T09:49:14.014Z,24.3
2022-10-06T09:51:29.555Z,24.3
2022-10-06T09:53:45.563Z,24.1
2022-10-06T09:56:01.232Z,24.3
2022-10-06T09:58:17.222Z,24.3
2022-10-06T10:00:32.974Z,24.4
2022-10-06T10:02:48.820Z,24.2
2022-10-06T10:05:18.379Z,24.3
2022-10-06T10:07:34.015Z,24.1
2022-10-06T10:09:49.808Z,24.1
2022-10-06T10:12:05.437Z,24.1
2022-10-06T10:14:21.863Z,24.2
2022-10-06T10:16:36.979Z,24.1
2022-10-06T10:18:52.697Z,24.1
2022-10-06T10:21:08.352Z,24.1
2022-10-06T10:23:27.399Z,24.3
2022-10-06T10:25:39.796Z,24.4
2022-10-06T10:27:55.629Z,24.2
2022-10-06T10:30:11.247Z,24.4
2022-10-06T10:32:27.140Z,24.2
2022-10-06T10:34:45.011Z,24.3
2022-10-06T10:37:00.918Z,24.1
2022-10-06T10:39:16.483Z,24.2
2022-10-06T10:41:32.160Z,24.1
2022-10-06T10:43:47.921Z,24
2022-10-06T10:46:03.696Z,24
2022-10-06T10:48:19.530Z,24.3
2022-10-06T10:50:35.199Z,23.9
2022-10-06T10:52:50.863Z,24
2022-10-06T10:55:06.675Z,24
2022-10-06T10:57:22.359Z,24
2022-10-06T10:59:38.173Z,23.9
2022-10-06T11:01:53.933Z,24
2022-10-06T11:04:09.548Z,23.9
2022-10-06T11:06:25.344Z,23.9
2022-10-06T11:08:41.088Z,23.9
2022-10-06T11:10:56.793Z,23.9
2022-10-06T11:13:12.597Z,23.9
2022-10-06T11:15:28.497Z,23.9
2022-10-06T11:17:44.457Z,23.8
2022-10-06T11:19:59.852Z,23.9
2022-10-06T11:22:15.774Z,23.9
2022-10-06T11:24:31.296Z,23.8
2022-10-06T11:26:47.115Z,23.8
2022-10-06T11:29:02.789Z,23.9
2022-10-06T11:31:22.557Z,23.8
2022-10-06T11:33:34.295Z,23.8
2022-10-06T11:35:50.073Z,23.8
2022-10-06T11:38:05.873Z,23.7
2022-10-06T11:40:21.539Z,23.7
2022-10-06T11:42:37.285Z,23.8
2022-10-06T11:44:53.169Z,23.8
2022-10-06T11:47:08.825Z,23.8
2022-10-06T11:49:24.558Z,23.5
2022-10-06T11:51:40.478Z,23.6
2022-10-06T11:53:56.059Z,23.8
2022-10-06T11:56:12.006Z,23.6
2022-10-06T11:58:44.909Z,23.5
2022-10-06T12:01:01.143Z,23.6
2022-10-06T12:03:17.033Z,23.5
2022-10-06T12:05:57.442Z,23.6
2022-10-06T12:08:12.980Z,23.4
2022-10-06T12:10:28.826Z,23.5
2022-10-06T12:12:57.306Z,23.8
2022-10-06T12:17:59.282Z,23.6
2022-10-06T12:20:14.857Z,23.6
2022-10-06T12:22:30.670Z,23.6
2022-10-06T12:24:46.504Z,23.5
2022-10-06T12:27:02.188Z,23.6
2022-10-06T12:29:18.048Z,23.4
2022-10-06T12:31:33.793Z,23.4
2022-10-06T12:33:49.548Z,23.4
2022-10-06T12:36:05.185Z,23.4
2022-10-06T12:38:21.053Z,23.4
2022-10-06T12:40:36.771Z,23.6
2022-10-06T12:42:52.624Z,23.4
2022-10-06T12:45:08.398Z,23.3
2022-10-06T12:47:24.290Z,23.4
2022-10-06T12:49:39.954Z,23.4
2022-10-06T12:51:57.738Z,23.3
2022-10-06T12:54:11.484Z,23.3
2022-10-06T12:56:27.348Z,23.4
2022-10-06T12:58:43.124Z,23.4
2022-10-06T13:00:58.937Z,23.3
2022-10-06T13:03:14.893Z,23.4
2022-10-06T13:05:30.496Z,23.3
2022-10-06T13:07:46.186Z,23.3
2022-10-06T13:10:02.113Z,23.3
2022-10-06T13:12:17.923Z,23.2
2022-10-06T13:14:33.618Z,23.1
2022-10-06T13:16:49.401Z,23.5
2022-10-06T13:19:05.278Z,23.2
2022-10-06T13:21:21.031Z,23.3
2022-10-06T13:23:36.731Z,23.2
2022-10-06T13:25:52.512Z,23.2
2022-10-06T13:28:08.375Z,23.3
2022-10-06T13:30:24.031Z,23.2
2022-10-06T13:32:39.778Z,22.9
2022-10-06T13:34:56.132Z,23.3
2022-10-06T13:39:27.658Z,23.1
2022-10-06T13:41:45.964Z,23.1
2022-10-06T13:44:01.826Z,23.4
2022-10-06T13:46:18.107Z,23.2
2022-10-06T13:48:33.508Z,23.1
2022-10-06T13:50:49.186Z,23.3
2022-10-06T13:53:04.938Z,23.1
2022-10-06T13:55:20.681Z,23.1
2022-10-06T13:57:36.599Z,23.1
2022-10-06T13:59:52.416Z,23
2022-10-06T14:02:08.254Z,22.9
2022-10-06T14:04:24.019Z,23.1
2022-10-06T14:06:39.834Z,23.1
2022-10-06T14:08:55.662Z,23.1
2022-10-06T14:11:11.597Z,23.1
2022-10-06T14:13:27.254Z,23.1
2022-10-06T14:15:43.083Z,23
2022-10-06T14:17:58.813Z,23
2022-10-06T14:20:15.477Z,22.9
2022-10-06T14:22:30.656Z,22.5
2022-10-06T14:24:46.201Z,22.9
2022-10-06T14:27:01.851Z,22.9
2022-10-06T14:29:17.473Z,22.9
2022-10-06T14:31:33.288Z,22.9
2022-10-06T14:33:49.153Z,22.9
2022-10-06T14:36:04.682Z,22.8
2022-10-06T14:38:20.463Z,23
2022-10-06T14:40:36.585Z,22.8
2022-10-06T14:42:52.378Z,22.8
2022-10-06T14:45:08.392Z,22.8
2022-10-06T14:47:24.113Z,22.7
2022-10-06T14:49:40.575Z,22.8
2022-10-06T14:51:56.218Z,22.3
2022-10-06T14:54:12.465Z,22.9
2022-10-06T14:56:28.037Z,22.2
2022-10-06T14:58:44.238Z,22.8
2022-10-06T15:00:59.741Z,22.3
2022-10-06T15:03:15.184Z,22.8
2022-10-06T15:05:31.542Z,22.7
2022-10-06T15:07:46.878Z,22.3
2022-10-06T15:10:03.399Z,22.8
2022-10-06T15:12:18.665Z,22.1
2022-10-06T15:14:35.124Z,22.6
2022-10-06T15:16:50.648Z,22.3
2022-10-06T15:19:07.409Z,22.6
2022-10-06T15:21:23.961Z,22.6
2022-10-06T15:23:40.463Z,22.6
2022-10-06T15:25:57.125Z,22.4
2022-10-06T15:28:13.624Z,22.4
2022-10-06T15:30:30.300Z,22.4
2022-10-06T15:32:46.717Z,22.3
2022-10-06T15:35:03.074Z,22.2
2022-10-06T15:37:19.787Z,22.4
2022-10-06T15:39:36.112Z,22.4
2022-10-06T15:41:52.742Z,22.2
2022-10-06T15:44:09.219Z,22.5
2022-10-06T15:46:25.914Z,22.4
2022-10-06T15:48:42.183Z,22.3
2022-10-06T15:50:58.956Z,22.6
2022-10-06T15:53:15.156Z,22.4
2022-10-06T15:55:31.917Z,22.6
2022-10-06T15:57:47.021Z,22.3
2022-10-06T16:00:03.621Z,22.6
2022-10-06T16:02:19.126Z,22.3
2022-10-06T16:04:35.973Z,22.4
2022-10-06T16:06:53.498Z,22.4
2022-10-06T16:09:09.579Z,22.3
2022-10-06T16:11:26.489Z,22.1
2022-10-06T16:13:43.060Z,22.3
2022-10-06T16:15:58.397Z,22.1
2022-10-06T16:18:13.667Z,22.3
2022-10-06T16:20:29.184Z,22.4
2022-10-06T16:22:46.414Z,22.3
2022-10-06T16:25:01.719Z,22.1
2022-10-06T16:27:18.683Z,22.1
2022-10-06T16:29:34.136Z,21.9
2022-10-06T16:31:49.884Z,22.1
2022-10-06T16:34:06.766Z,22.2
2022-10-06T16:36:21.917Z,22
2022-10-06T16:38:39.297Z,22.1
2022-10-06T16:40:56.615Z,22
2022-10-06T16:43:13.287Z,21.8
2022-10-06T16:45:30.087Z,22.1
2022-10-06T16:47:47.165Z,21.9
2022-10-06T16:50:02.510Z,21.8
2022-10-06T16:52:19.157Z,22.2
2022-10-06T16:54:36.061Z,21.9
2022-10-06T16:56:53.055Z,21.9
2022-10-06T16:59:10.027Z,21.8
2022-10-06T17:01:26.946Z,21.9
2022-10-06T17:03:42.296Z,21.6
2022-10-06T17:05:58.906Z,22
2022-10-06T17:08:15.981Z,21.6
2022-10-06T17:10:48.698Z,21.8
2022-10-06T17:13:05.485Z,21.8
2022-10-06T17:15:22.450Z,21.6
2022-10-06T17:17:39.447Z,21.6
2022-10-06T17:19:55.756Z,21.7
2022-10-06T17:22:31.386Z,21.6
2022-10-06T17:24:48.097Z,21.7
2022-10-06T17:27:05.215Z,21.6
2022-10-06T17:29:21.903Z,21.6
2022-10-06T17:31:38.635Z,21.4
2022-10-06T17:33:55.564Z,21.4
2022-10-06T17:36:12.360Z,21.6
2022-10-06T17:38:29.317Z,21.5
2022-10-06T17:40:44.811Z,21.6
2022-10-06T17:43:01.585Z,21.8
2022-10-06T17:45:21.005Z,21.4
2022-10-06T17:47:33.956Z,21.7
2022-10-06T17:49:50.820Z,21.3
2022-10-06T17:52:07.926Z,21.8
2022-10-06T17:54:24.652Z,21.4
2022-10-06T17:56:41.460Z,21.6
2022-10-06T17:58:58.561Z,21.5
2022-10-06T18:01:15.338Z,21.4
2022-10-06T18:03:32.287Z,21.4
2022-10-06T18:05:49.104Z,21.5
2022-10-06T18:08:06.041Z,21.3
2022-10-06T18:10:22.947Z,21.3
2022-10-06T18:12:40.257Z,21.3
2022-10-06T18:14:56.749Z,21.3
2022-10-06T18:17:13.559Z,21.4
2022-10-06T18:19:30.747Z,21.3
2022-10-06T18:21:47.328Z,21.4
2022-10-06T18:26:21.536Z,21.3
2022-10-06T18:28:38.448Z,21.3
2022-10-06T18:30:55.121Z,21.4
2022-10-06T18:37:33.163Z,21.4
2022-10-06T18:39:50.023Z,21.1
2022-10-06T18:42:06.847Z,21.1
2022-10-06T18:44:22.128Z,21.2
2022-10-06T18:46:39.451Z,21.4
2022-10-06T18:48:55.924Z,21.3
2022-10-06T18:51:12.721Z,21.2
2022-10-06T18:53:28.203Z,21.1
2022-10-06T18:55:45.138Z,21.3
2022-10-06T18:58:02.280Z,21.1
2022-10-06T19:00:19.101Z,21.3
2022-10-06T19:04:53.192Z,21.2
2022-10-06T19:07:09.971Z,21.2
2022-10-06T19:09:27.024Z,21.1
2022-10-06T19:11:43.804Z,20.9
2022-10-06T19:14:01.074Z,21
2022-10-06T19:16:17.700Z,21.1
2022-10-06T19:18:36.100Z,21
2022-10-06T19:23:09.742Z,21
2022-10-06T19:25:26.579Z,20.8
2022-10-06T19:27:43.620Z,20.8
2022-10-06T19:30:00.323Z,21.1
2022-10-06T19:32:17.361Z,21.1
2022-10-06T19:34:33.944Z,20.9
2022-10-06T19:39:07.624Z,20.9
2022-10-06T19:41:24.458Z,20.9
2022-10-06T19:43:41.343Z,20.9
2022-10-06T19:45:58.205Z,21
2022-10-06T19:48:15.381Z,21
2022-10-06T19:50:31.963Z,21.1
2022-10-06T19:52:48.900Z,20.7
2022-10-06T19:55:05.995Z,20.7
2022-10-06T19:57:22.858Z,20.8
2022-10-06T19:59:39.841Z,20.8
2022-10-06T20:01:56.714Z,20.9
2022-10-06T20:04:13.831Z,21
2022-10-06T20:06:30.612Z,20.8
2022-10-06T20:08:47.508Z,20.7
2022-10-06T20:11:04.616Z,20.8
2022-10-06T20:13:19.914Z,20.6
2022-10-06T20:15:35.730Z,21.1
2022-10-06T20:17:52.764Z,21
2022-10-06T20:20:09.686Z,20.8
2022-10-06T20:22:25.246Z,20.9
2022-10-06T20:24:42.405Z,21.1
2022-10-06T20:26:59.350Z,20.7
2022-10-06T20:29:16.603Z,20.7
2022-10-06T20:31:33.299Z,20.6
2022-10-06T20:33:50.245Z,20.6
2022-10-06T20:36:07.195Z,20.8
2022-10-06T20:38:24.126Z,20.6
2022-10-06T20:40:41.160Z,20.7
2022-10-06T20:42:58.066Z,20.5
2022-10-06T20:45:15.146Z,20.5
2022-10-06T20:47:32.033Z,20.6
2022-10-06T20:49:49.093Z,20.6
2022-10-06T20:52:06.023Z,20.7
2022-10-06T20:54:22.883Z,20.5
2022-10-06T20:56:39.988Z,20.6
2022-10-06T20:58:55.389Z,20.5
2022-10-06T21:01:11.231Z,20.9
2022-10-06T21:03:28.208Z,20.8
2022-10-06T21:05:45.205Z,20.6
2022-10-06T21:08:02.103Z,20.8
2022-10-06T21:10:19.139Z,20.7
2022-10-06T21:12:36.039Z,20.3
2022-10-06T21:14:53.204Z,20.3
2022-10-06T21:17:09.959Z,20.5
2022-10-06T21:19:26.909Z,20.6
2022-10-06T21:21:44.078Z,20.4
2022-10-06T21:24:01.027Z,20.4
2022-10-06T21:26:16.504Z,20.6
2022-10-06T21:28:33.415Z,20.8
2022-10-06T21:30:50.624Z,20.1
2022-10-06T21:33:06.121Z,20.6
2022-10-06T21:35:23.023Z,20.9
2022-10-06T21:37:39.946Z,20.3
2022-10-06T21:40:01.384Z,20.4
2022-10-06T21:42:14.027Z,20.4
2022-10-06T21:44:30.914Z,20.4
2022-10-06T21:47:00.616Z,20.6
2022-10-06T21:49:17.372Z,20.7
2022-10-06T21:51:34.338Z,20.4
2022-10-06T21:53:51.177Z,20.3
2022-10-06T21:56:08.227Z,20.6
2022-10-06T21:58:25.043Z,20.6
2022-10-06T22:00:41.938Z,20.4
2022-10-06T22:02:58.927Z,20.4
2022-10-06T22:05:16.091Z,20.4
2022-10-06T22:07:32.576Z,20.1
2022-10-06T22:09:49.449Z,20.3
2022-10-06T22:12:06.514Z,20.2
2022-10-06T22:14:23.430Z,20.2
2022-10-06T22:16:40.174Z,20.3
2022-10-06T22:18:57.048Z,20.3
2022-10-06T22:21:13.880Z,20.3
2022-10-06T22:23:30.734Z,20.2
2022-10-06T22:25:47.631Z,20.1
2022-10-06T22:28:04.539Z,20.3
2022-10-06T22:30:21.296Z,20.3
2022-10-06T22:32:38.452Z,20.1
2022-10-06T22:34:55.168Z,20.1
2022-10-06T22:37:12.028Z,20.2
2022-10-06T22:39:28.888Z,20.2
2022-10-06T22:41:45.828Z,20.3
2022-10-06T22:44:02.672Z,20.1
2022-10-06T22:46:18.275Z,20.1
2022-10-06T22:48:34.914Z,20.6
2022-10-06T22:50:51.969Z,20.2
2022-10-06T22:53:07.435Z,20.3
2022-10-06T22:55:24.255Z,20.5
2022-10-06T22:57:41.487Z,19.9
2022-10-06T22:59:58.353Z,20.3
2022-10-06T23:02:15.075Z,19.9
2022-10-06T23:04:32.005Z,20.3
2022-10-06T23:06:48.993Z,20.2
2022-10-06T23:09:04.327Z,20.1
2022-10-06T23:11:19.969Z,20.4
2022-10-06T23:13:36.985Z,20.3
2022-10-06T23:15:53.931Z,20.1
2022-10-06T23:18:09.534Z,20.1
2022-10-06T23:20:26.515Z,20.4
2022-10-06T23:22:43.410Z,19.8
2022-10-06T23:25:00.397Z,20.2
2022-10-06T23:27:17.351Z,19.9
2022-10-06T23:29:34.275Z,20
2022-10-06T23:31:51.213Z,20
2022-10-06T23:34:08.039Z,20.1
2022-10-06T23:36:24.891Z,20.1
2022-10-06T23:38:41.867Z,19.8
2022-10-06T23:40:58.776Z,19.9
2022-10-06T23:43:15.574Z,20.1
2022-10-06T23:45:32.803Z,20
2022-10-06T23:47:48.159Z,19.8
2022-10-06T23:50:03.698Z,20.3
2022-10-06T23:52:20.602Z,20.6
2022-10-06T23:54:37.610Z,19.9
2022-10-06T23:56:54.662Z,20
2022-10-06T23:59:11.549Z,20.3
